createdAt,value
2023-12-27T00:01:02.857Z,4.22
2023-12-27T00:03:32.710Z,3.40
2023-12-27T00:06:02.749Z,3.63
2023-12-27T00:08:32.666Z,3.15
2023-12-27T00:11:02.461Z,3.22
2023-12-27T00:13:32.276Z,3.30
2023-12-27T00:16:04.744Z,2.75
2023-12-27T00:18:34.660Z,2.78
2023-12-27T00:21:04.586Z,3.67
2023-12-27T00:23:34.386Z,4.82
2023-12-27T00:26:04.210Z,4.43
2023-12-27T00:28:34.017Z,3.72
2023-12-27T00:31:06.740Z,4.15
2023-12-27T00:33:36.932Z,3.92
2023-12-27T00:36:08.032Z,3.28
2023-12-27T00:38:39.056Z,4.07
2023-12-27T00:41:10.593Z,3.33
2023-12-27T00:43:40.387Z,2.95
2023-12-27T00:46:12.879Z,3.22
2023-12-27T00:48:42.733Z,3.20
2023-12-27T00:51:22.300Z,2.58
2023-12-27T00:53:52.752Z,2.90
2023-12-27T00:56:22.641Z,3.00
2023-12-27T00:58:52.460Z,2.90
2023-12-27T01:01:24.969Z,3.08
2023-12-27T01:03:55.467Z,3.40
2023-12-27T01:06:25.452Z,3.17
2023-12-27T01:08:55.344Z,2.60
2023-12-27T01:11:25.185Z,2.80
2023-12-27T01:13:54.974Z,2.42
2023-12-27T01:16:27.800Z,2.60
2023-12-27T01:18:57.695Z,4.03
2023-12-27T01:21:27.594Z,3.33
2023-12-27T01:23:57.452Z,2.30
2023-12-27T01:26:27.246Z,2.78
2023-12-27T01:28:57.049Z,3.10
2023-12-27T01:31:29.522Z,2.95
2023-12-27T01:34:08.207Z,2.92
2023-12-27T01:36:42.227Z,3.30
2023-12-27T01:39:12.266Z,3.17
2023-12-27T01:41:42.274Z,2.63
2023-12-27T01:44:12.289Z,3.17
2023-12-27T01:46:44.876Z,3.40
2023-12-27T01:49:14.822Z,3.15
2023-12-27T01:51:44.911Z,3.05
2023-12-27T01:54:15.959Z,2.80
2023-12-27T01:56:47.580Z,3.65
2023-12-27T01:59:17.656Z,2.80
2023-12-27T02:01:50.663Z,3.38
2023-12-27T02:04:20.544Z,3.00
2023-12-27T02:06:51.174Z,3.17
2023-12-27T02:09:21.850Z,3.20
2023-12-27T02:11:51.731Z,3.10
2023-12-27T02:14:21.603Z,3.42
2023-12-27T02:16:54.969Z,2.17
2023-12-27T02:19:27.582Z,3.08
2023-12-27T02:21:58.052Z,2.83
2023-12-27T02:24:38.321Z,2.97
2023-12-27T02:27:08.358Z,3.20
2023-12-27T02:29:39.174Z,3.03
2023-12-27T02:32:09.816Z,2.75
2023-12-27T02:34:39.984Z,2.90
2023-12-27T02:37:09.863Z,2.20
2023-12-27T02:39:42.288Z,2.88
2023-12-27T02:42:12.150Z,3.67
2023-12-27T02:44:42.664Z,3.53
2023-12-27T02:47:12.478Z,2.92
2023-12-27T02:49:42.564Z,3.00
2023-12-27T02:52:12.410Z,3.15
2023-12-27T02:54:44.915Z,3.60
2023-12-27T02:57:14.756Z,3.03
2023-12-27T02:59:44.634Z,3.25
2023-12-27T03:02:14.461Z,3.08
2023-12-27T03:04:44.291Z,3.55
2023-12-27T03:07:15.173Z,3.40
2023-12-27T03:09:47.576Z,3.95
2023-12-27T03:12:17.432Z,3.70
2023-12-27T03:14:47.213Z,8.15
2023-12-27T03:17:17.445Z,5.55
2023-12-27T03:19:47.302Z,4.20
2023-12-27T03:22:17.131Z,4.57
2023-12-27T03:24:49.627Z,4.20
2023-12-27T03:27:19.551Z,5.10
2023-12-27T03:29:49.374Z,4.32
2023-12-27T03:32:19.192Z,3.85
2023-12-27T03:34:49.022Z,4.00
2023-12-27T03:37:18.889Z,4.28
2023-12-27T03:39:52.664Z,5.45
2023-12-27T03:42:23.231Z,5.70
2023-12-27T03:44:54.522Z,4.28
2023-12-27T03:47:24.488Z,5.18
2023-12-27T03:49:54.420Z,5.07
2023-12-27T03:52:24.905Z,4.75
2023-12-27T03:54:57.336Z,5.60
2023-12-27T03:57:27.311Z,5.38
2023-12-27T03:59:57.158Z,6.20
2023-12-27T04:02:27.226Z,6.45
2023-12-27T04:04:57.026Z,5.65
2023-12-27T04:07:26.880Z,5.22
2023-12-27T04:09:59.336Z,5.72
2023-12-27T04:12:29.213Z,5.78
2023-12-27T04:14:59.102Z,5.07
2023-12-27T04:17:29.408Z,5.10
2023-12-27T04:19:59.301Z,5.05
2023-12-27T04:22:29.212Z,5.55
2023-12-27T04:25:04.434Z,4.90
2023-12-27T04:30:04.489Z,5.03
2023-12-27T04:32:34.486Z,4.68
2023-12-27T04:35:04.455Z,6.25
2023-12-27T04:37:34.435Z,5.65
2023-12-27T04:40:07.850Z,5.13
2023-12-27T04:42:37.840Z,7.05
2023-12-27T04:45:09.204Z,6.55
2023-12-27T04:47:39.117Z,6.10
2023-12-27T04:50:10.662Z,5.47
2023-12-27T04:52:40.612Z,5.75
2023-12-27T04:55:13.511Z,7.82
2023-12-27T04:57:43.363Z,9.35
2023-12-27T05:00:13.917Z,8.02
2023-12-27T05:02:43.789Z,7.55
2023-12-27T05:05:13.585Z,7.22
2023-12-27T05:07:43.449Z,8.20
2023-12-27T05:10:15.901Z,7.60
2023-12-27T05:12:45.768Z,7.05
2023-12-27T05:15:15.590Z,6.65
2023-12-27T05:17:45.514Z,7.65
2023-12-27T05:20:15.532Z,7.22
2023-12-27T05:22:45.967Z,6.47
2023-12-27T05:25:18.497Z,6.80
2023-12-27T05:27:48.312Z,6.45
2023-12-27T05:30:18.360Z,7.10
2023-12-27T05:32:48.309Z,5.35
2023-12-27T05:35:18.250Z,6.45
2023-12-27T05:37:48.096Z,6.00
2023-12-27T05:40:20.604Z,4.95
2023-12-27T05:42:50.385Z,6.05
2023-12-27T05:45:20.311Z,4.93
2023-12-27T05:47:50.225Z,5.03
2023-12-27T05:50:21.012Z,5.40
2023-12-27T05:52:51.438Z,5.18
2023-12-27T05:55:24.444Z,4.72
2023-12-27T05:57:54.312Z,5.00
2023-12-27T06:00:24.438Z,5.43
2023-12-27T06:02:54.303Z,4.50
2023-12-27T06:05:24.798Z,5.47
2023-12-27T06:07:54.871Z,5.25
2023-12-27T06:10:27.766Z,5.80
2023-12-27T06:12:58.082Z,5.13
2023-12-27T06:15:27.902Z,5.18
2023-12-27T06:17:58.084Z,5.47
2023-12-27T06:20:28.058Z,5.03
2023-12-27T06:22:57.877Z,5.07
2023-12-27T06:25:30.284Z,5.95
2023-12-27T06:28:00.450Z,6.43
2023-12-27T06:30:30.904Z,6.03
2023-12-27T06:33:00.857Z,5.68
2023-12-27T06:35:30.715Z,4.88
2023-12-27T06:38:00.870Z,5.45
2023-12-27T06:40:33.520Z,5.50
2023-12-27T06:43:03.964Z,5.55
2023-12-27T06:45:33.887Z,5.18
2023-12-27T06:48:04.044Z,4.57
2023-12-27T06:50:33.972Z,5.18
2023-12-27T06:53:03.833Z,4.70
2023-12-27T06:55:36.247Z,4.13
2023-12-27T06:58:06.287Z,5.07
2023-12-27T07:00:36.864Z,5.88
2023-12-27T07:03:07.329Z,5.22
2023-12-27T07:05:38.110Z,5.47
2023-12-27T07:08:08.377Z,4.85
2023-12-27T07:10:40.769Z,4.43
2023-12-27T07:13:10.683Z,4.90
2023-12-27T07:15:40.621Z,4.75
2023-12-27T07:18:10.749Z,5.00
2023-12-27T07:20:40.962Z,3.97
2023-12-27T07:23:11.783Z,4.55
2023-12-27T07:25:44.206Z,5.32
2023-12-27T07:28:14.089Z,3.97
2023-12-27T07:30:43.971Z,4.85
2023-12-27T07:33:17.254Z,3.60
2023-12-27T07:35:47.438Z,3.05
2023-12-27T07:38:17.415Z,4.45
2023-12-27T07:40:49.801Z,4.30
2023-12-27T07:43:23.474Z,3.30
2023-12-27T07:45:53.389Z,3.55
2023-12-27T07:48:24.291Z,4.00
2023-12-27T07:50:54.270Z,3.40
2023-12-27T07:53:24.118Z,3.20
2023-12-27T07:55:56.515Z,3.50
2023-12-27T07:58:26.343Z,3.78
2023-12-27T08:00:57.093Z,4.18
2023-12-27T08:03:26.973Z,3.15
2023-12-27T08:05:56.911Z,3.58
2023-12-27T08:08:26.725Z,4.22
2023-12-27T08:10:59.162Z,4.10
2023-12-27T08:13:28.973Z,3.70
2023-12-27T08:15:59.237Z,3.05
2023-12-27T08:18:29.175Z,3.15
2023-12-27T08:20:59.828Z,3.22
2023-12-27T08:23:29.667Z,2.95
2023-12-27T08:26:02.127Z,3.78
2023-12-27T08:28:32.017Z,3.50
2023-12-27T08:31:01.945Z,3.15
2023-12-27T08:33:32.172Z,3.03
2023-12-27T08:36:02.416Z,3.25
2023-12-27T08:38:32.833Z,2.75
2023-12-27T08:41:06.422Z,2.78
2023-12-27T08:43:38.468Z,4.22
2023-12-27T08:46:12.267Z,3.17
2023-12-27T08:48:42.189Z,3.08
2023-12-27T08:51:13.258Z,3.95
2023-12-27T08:53:43.099Z,2.85
2023-12-27T08:56:16.182Z,3.38
2023-12-27T08:58:46.040Z,3.22
2023-12-27T09:01:17.587Z,2.85
2023-12-27T09:03:50.097Z,3.50
2023-12-27T09:06:20.152Z,2.30
2023-12-27T09:08:50.594Z,3.35
2023-12-27T09:11:40.255Z,3.30
2023-12-27T09:14:12.520Z,3.28
2023-12-27T09:16:42.298Z,3.33
2023-12-27T09:19:12.355Z,3.45
2023-12-27T09:21:47.381Z,2.95
2023-12-27T09:24:17.825Z,2.60
2023-12-27T09:26:51.136Z,3.40
2023-12-27T09:29:20.954Z,3.35
2023-12-27T09:31:50.859Z,2.90
2023-12-27T09:34:20.867Z,2.95
2023-12-27T09:36:50.763Z,3.00
2023-12-27T09:39:20.640Z,2.70
2023-12-27T09:41:53.219Z,2.45
2023-12-27T09:44:24.007Z,2.55
2023-12-27T09:46:54.453Z,2.70
2023-12-27T09:49:25.727Z,2.30
2023-12-27T09:51:57.022Z,2.53
2023-12-27T09:54:27.237Z,2.35
2023-12-27T09:57:00.523Z,2.13
2023-12-27T09:59:32.461Z,2.58
2023-12-27T10:02:03.706Z,1.83
2023-12-27T10:04:51.705Z,2.08
2023-12-27T10:07:22.925Z,2.55
2023-12-27T10:09:53.465Z,1.80
2023-12-27T10:12:25.970Z,1.70
2023-12-27T10:14:57.221Z,1.73
2023-12-27T10:17:27.187Z,1.88
2023-12-27T10:19:57.339Z,1.80
2023-12-27T10:22:28.220Z,1.77
2023-12-27T10:24:58.790Z,2.25
2023-12-27T10:27:34.185Z,1.80
2023-12-27T10:32:36.208Z,1.48
2023-12-27T10:35:06.340Z,1.98
2023-12-27T10:37:36.216Z,1.67
2023-12-27T10:40:07.185Z,1.58
2023-12-27T10:42:39.633Z,1.58
2023-12-27T10:45:09.812Z,1.60
2023-12-27T10:47:40.202Z,1.38
2023-12-27T10:50:13.566Z,1.52
2023-12-27T10:52:48.520Z,1.02
2023-12-27T10:55:23.793Z,1.50
2023-12-27T10:57:59.518Z,1.60
2023-12-27T11:00:30.157Z,1.33
2023-12-27T11:03:01.844Z,1.20
2023-12-27T11:05:34.097Z,1.10
2023-12-27T11:08:05.151Z,1.42
2023-12-27T11:10:37.985Z,1.55
2023-12-27T11:13:13.161Z,1.35
2023-12-27T11:15:46.498Z,1.20
2023-12-27T11:18:17.044Z,1.17
2023-12-27T11:20:49.078Z,1.17
2023-12-27T11:23:19.002Z,1.90
2023-12-27T11:25:50.082Z,2.42
2023-12-27T11:28:24.505Z,1.90
2023-12-27T11:30:54.413Z,1.48
2023-12-27T11:33:29.147Z,1.30
2023-12-27T11:36:01.371Z,1.95
2023-12-27T11:38:32.645Z,1.58
2023-12-27T11:41:04.950Z,1.48
2023-12-27T11:43:58.397Z,1.60
2023-12-27T11:46:29.432Z,1.35
2023-12-27T11:49:00.908Z,1.65
2023-12-27T11:51:33.834Z,1.60
2023-12-27T11:54:04.518Z,1.27
2023-12-27T11:56:38.468Z,1.40
2023-12-27T11:59:13.395Z,1.20
2023-12-27T12:01:44.911Z,1.10
2023-12-27T12:04:26.265Z,1.48
2023-12-27T12:07:31.583Z,1.10
2023-12-27T12:10:01.410Z,1.08
2023-12-27T12:12:32.417Z,0.98
2023-12-27T12:15:05.357Z,1.70
2023-12-27T12:17:35.336Z,0.82
2023-12-27T12:20:06.848Z,1.33
2023-12-27T12:22:38.141Z,1.17
2023-12-27T12:25:11.724Z,1.00
2023-12-27T12:27:45.645Z,1.45
2023-12-27T12:30:19.672Z,1.30
2023-12-27T12:32:49.746Z,1.13
2023-12-27T12:35:20.179Z,1.25
2023-12-27T12:37:50.148Z,1.23
2023-12-27T12:40:20.359Z,1.27
2023-12-27T12:42:50.305Z,0.88
2023-12-27T12:45:23.013Z,1.10
2023-12-27T12:47:54.347Z,1.10
2023-12-27T12:50:24.494Z,0.95
2023-12-27T12:52:54.370Z,0.90
2023-12-27T12:55:30.059Z,1.10
2023-12-27T12:58:00.445Z,0.98
2023-12-27T13:00:33.817Z,1.27
2023-12-27T13:03:03.789Z,1.02
2023-12-27T13:05:34.041Z,1.00
2023-12-27T13:08:08.732Z,1.25
2023-12-27T13:10:40.576Z,1.50
2023-12-27T13:13:10.576Z,0.77
2023-12-27T13:15:43.075Z,0.85
2023-12-27T13:18:13.056Z,0.95
2023-12-27T13:20:43.016Z,0.75
2023-12-27T13:23:12.836Z,0.75
2023-12-27T13:25:43.533Z,0.80
2023-12-27T13:28:14.492Z,1.38
2023-12-27T13:30:47.272Z,1.00
2023-12-27T13:33:17.410Z,1.15
2023-12-27T13:35:47.401Z,1.17
2023-12-27T13:38:17.219Z,1.95
2023-12-27T13:40:47.074Z,1.20
2023-12-27T13:43:18.143Z,1.48
2023-12-27T13:45:50.733Z,1.80
2023-12-27T13:48:22.442Z,0.90
2023-12-27T13:50:54.282Z,1.10
2023-12-27T13:53:24.120Z,2.40
2023-12-27T13:55:53.953Z,1.42
2023-12-27T13:58:23.799Z,1.00
2023-12-27T14:00:56.622Z,1.05
2023-12-27T14:03:30.961Z,0.90
2023-12-27T14:06:01.145Z,1.40
2023-12-27T14:08:31.083Z,1.63
2023-12-27T14:11:01.127Z,1.13
2023-12-27T14:13:30.946Z,0.80
2023-12-27T14:16:04.942Z,1.08
2023-12-27T14:18:34.894Z,1.00
2023-12-27T14:21:05.026Z,1.27
2023-12-27T14:23:34.837Z,1.30
2023-12-27T14:26:06.325Z,1.48
2023-12-27T14:28:37.364Z,1.42
2023-12-27T14:31:09.910Z,1.30
2023-12-27T14:33:40.231Z,0.95
2023-12-27T14:36:11.355Z,1.33
2023-12-27T14:38:42.815Z,1.15
2023-12-27T14:41:12.949Z,0.80
2023-12-27T14:43:43.649Z,1.30
2023-12-27T14:46:16.140Z,1.50
2023-12-27T14:48:47.395Z,1.15
2023-12-27T14:51:17.372Z,1.33
2023-12-27T14:53:44.925Z,1.05
2023-12-27T14:56:15.669Z,0.90
2023-12-27T14:58:45.648Z,1.30
2023-12-27T15:01:18.089Z,1.17
2023-12-27T15:03:48.023Z,1.33
2023-12-27T15:06:18.002Z,1.48
2023-12-27T15:08:48.789Z,2.65
2023-12-27T15:11:18.803Z,1.48
2023-12-27T15:13:48.601Z,2.13
2023-12-27T15:16:21.440Z,1.80
2023-12-27T15:18:51.421Z,1.95
2023-12-27T15:21:22.388Z,1.30
2023-12-27T15:23:53.245Z,1.70
2023-12-27T15:26:24.191Z,1.13
2023-12-27T15:28:54.496Z,1.27
2023-12-27T15:31:29.740Z,1.25
2023-12-27T15:36:31.163Z,2.13
2023-12-27T15:39:01.730Z,1.60
2023-12-27T15:41:32.098Z,1.50
2023-12-27T15:44:04.210Z,1.58
2023-12-27T15:46:36.878Z,1.73
2023-12-27T15:49:06.965Z,1.55
2023-12-27T15:51:36.751Z,1.55
2023-12-27T15:54:08.488Z,1.52
2023-12-27T15:56:43.210Z,1.48
2023-12-27T15:59:14.384Z,1.90
2023-12-27T16:01:46.778Z,1.77
2023-12-27T16:04:19.006Z,1.30
2023-12-27T16:06:50.213Z,1.50
2023-12-27T16:09:20.469Z,1.63
2023-12-27T16:11:52.417Z,1.65
2023-12-27T16:14:22.257Z,1.55
2023-12-27T16:16:54.725Z,1.50
2023-12-27T16:19:24.920Z,2.08
2023-12-27T16:21:55.105Z,1.75
2023-12-27T16:24:25.225Z,2.28
2023-12-27T16:26:55.062Z,2.97
2023-12-27T16:29:24.839Z,2.03
2023-12-27T16:31:57.245Z,2.08
2023-12-27T16:34:27.245Z,2.00
2023-12-27T16:36:57.926Z,2.03
2023-12-27T16:39:27.781Z,1.92
2023-12-27T16:41:57.577Z,1.85
2023-12-27T16:44:28.144Z,1.70
2023-12-27T16:47:00.688Z,1.60
2023-12-27T16:49:30.783Z,1.80
2023-12-27T16:52:00.662Z,1.58
2023-12-27T16:54:30.660Z,1.52
2023-12-27T16:57:00.496Z,2.00
2023-12-27T16:59:30.269Z,1.98
2023-12-27T17:02:02.913Z,2.80
2023-12-27T17:04:32.967Z,2.25
2023-12-27T17:07:03.196Z,1.70
2023-12-27T17:09:34.556Z,2.03
2023-12-27T17:12:05.018Z,2.28
2023-12-27T17:14:32.304Z,1.95
2023-12-27T17:17:04.706Z,2.40
2023-12-27T17:19:34.617Z,1.92
2023-12-27T17:22:04.445Z,2.30
2023-12-27T17:24:34.519Z,2.05
2023-12-27T17:27:04.483Z,1.73
2023-12-27T17:29:34.619Z,1.83
2023-12-27T17:32:07.677Z,1.70
2023-12-27T17:34:37.646Z,1.55
2023-12-27T17:37:07.828Z,1.70
2023-12-27T17:39:37.835Z,2.00
2023-12-27T17:42:08.503Z,1.80
2023-12-27T17:44:38.478Z,1.60
2023-12-27T17:47:10.935Z,2.28
2023-12-27T17:49:40.912Z,2.03
2023-12-27T17:52:10.879Z,2.03
2023-12-27T17:54:40.811Z,2.05
2023-12-27T17:57:11.206Z,2.00
2023-12-27T17:59:42.124Z,1.77
2023-12-27T18:02:14.620Z,2.20
2023-12-27T18:04:44.706Z,1.75
2023-12-27T18:07:14.692Z,2.22
2023-12-27T18:09:44.970Z,1.77
2023-12-27T18:12:15.796Z,1.75
2023-12-27T18:14:47.496Z,1.70
2023-12-27T18:17:20.106Z,1.65
2023-12-27T18:19:50.193Z,1.98
2023-12-27T18:22:20.161Z,2.10
2023-12-27T18:24:50.021Z,1.73
2023-12-27T18:27:19.870Z,1.58
2023-12-27T18:29:49.669Z,1.67
2023-12-27T18:32:22.268Z,1.60
2023-12-27T18:34:52.160Z,1.75
2023-12-27T18:37:22.047Z,1.73
2023-12-27T18:39:51.893Z,1.75
2023-12-27T18:42:21.792Z,1.73
2023-12-27T18:44:51.671Z,1.90
2023-12-27T18:47:24.152Z,1.52
2023-12-27T18:49:54.098Z,1.67
2023-12-27T18:52:24.075Z,1.48
2023-12-27T18:54:54.671Z,1.90
2023-12-27T18:57:25.959Z,1.83
2023-12-27T18:59:56.035Z,1.55
2023-12-27T19:02:28.446Z,1.67
2023-12-27T19:04:58.275Z,1.85
2023-12-27T19:07:28.162Z,1.50
2023-12-27T19:09:58.171Z,1.25
2023-12-27T19:12:29.483Z,1.55
2023-12-27T19:15:01.128Z,1.88
2023-12-27T19:17:34.954Z,1.70
2023-12-27T19:20:05.182Z,1.77
2023-12-27T19:22:35.129Z,1.83
2023-12-27T19:25:04.974Z,1.80
2023-12-27T19:27:34.832Z,1.77
2023-12-27T19:30:06.448Z,1.60
2023-12-27T19:32:39.203Z,1.48
2023-12-27T19:35:09.961Z,1.48
2023-12-27T19:37:42.396Z,1.80
2023-12-27T19:40:14.464Z,1.45
2023-12-27T19:42:44.804Z,1.50
2023-12-27T19:45:14.688Z,1.50
2023-12-27T19:47:47.637Z,1.45
2023-12-27T19:50:17.641Z,1.60
2023-12-27T19:52:47.425Z,1.35
2023-12-27T19:55:17.611Z,1.67
2023-12-27T19:57:47.434Z,1.55
2023-12-27T20:00:17.632Z,1.40
2023-12-27T20:02:50.142Z,2.30
2023-12-27T20:05:20.287Z,1.70
2023-12-27T20:07:50.091Z,1.52
2023-12-27T20:10:19.909Z,1.50
2023-12-27T20:12:49.870Z,1.30
2023-12-27T20:15:20.447Z,1.38
2023-12-27T20:17:52.966Z,1.30
2023-12-27T20:20:22.974Z,1.48
2023-12-27T20:22:52.983Z,1.00
2023-12-27T20:25:22.951Z,1.45
2023-12-27T20:27:52.958Z,1.42
2023-12-27T20:30:25.667Z,1.60
2023-12-27T20:32:58.267Z,1.60
2023-12-27T20:35:28.212Z,1.60
2023-12-27T20:37:58.303Z,1.50
2023-12-27T20:40:28.232Z,1.45
2023-12-27T20:42:58.107Z,1.45
2023-12-27T20:45:28.154Z,1.38
2023-12-27T20:48:00.816Z,0.82
2023-12-27T20:50:30.799Z,1.40
2023-12-27T20:53:00.665Z,1.45
2023-12-27T20:55:30.473Z,1.45
2023-12-27T20:58:00.532Z,1.35
2023-12-27T21:00:30.653Z,1.38
2023-12-27T21:03:03.160Z,1.83
2023-12-27T21:05:33.172Z,1.30
2023-12-27T21:08:03.654Z,1.00
2023-12-27T21:10:33.560Z,1.50
2023-12-27T21:13:03.567Z,1.48
2023-12-27T21:15:34.781Z,1.38
2023-12-27T21:18:08.250Z,2.08
2023-12-27T21:20:38.229Z,1.63
2023-12-27T21:23:08.074Z,1.40
2023-12-27T21:25:37.871Z,1.70
2023-12-27T21:28:09.139Z,1.48
2023-12-27T21:30:40.749Z,1.20
2023-12-27T21:33:13.457Z,1.35
2023-12-27T21:35:43.619Z,1.20
2023-12-27T21:38:13.458Z,1.25
2023-12-27T21:40:43.263Z,1.38
2023-12-27T21:43:14.514Z,1.60
2023-12-27T21:45:44.342Z,1.52
2023-12-27T21:48:16.863Z,1.02
2023-12-27T21:50:46.697Z,1.15
2023-12-27T21:53:16.579Z,1.80
2023-12-27T21:55:46.373Z,1.38
2023-12-27T21:58:16.191Z,1.40
2023-12-27T22:00:46.066Z,1.70
2023-12-27T22:03:19.802Z,1.52
2023-12-27T22:05:49.638Z,1.52
2023-12-27T22:08:19.963Z,1.60
2023-12-27T22:10:49.754Z,1.30
2023-12-27T22:13:19.573Z,1.80
2023-12-27T22:15:55.751Z,1.48
2023-12-27T22:18:33.443Z,1.20
2023-12-27T22:21:05.530Z,1.58
2023-12-27T22:23:35.463Z,1.70
2023-12-27T22:26:05.829Z,1.48
2023-12-27T22:28:35.634Z,1.35
2023-12-27T22:31:05.535Z,1.67
2023-12-27T22:33:38.133Z,1.30
2023-12-27T22:36:11.009Z,1.30
2023-12-27T22:38:40.853Z,1.30
2023-12-27T22:41:10.621Z,1.73
2023-12-27T22:43:40.447Z,1.52
2023-12-27T22:46:10.225Z,1.60
2023-12-27T22:48:42.683Z,1.80
2023-12-27T22:51:12.560Z,1.33
2023-12-27T22:53:42.496Z,1.90
2023-12-27T22:56:13.091Z,1.55
2023-12-27T22:58:43.059Z,1.55
2023-12-27T23:01:13.248Z,1.40
2023-12-27T23:03:45.799Z,1.70
2023-12-27T23:06:15.787Z,1.33
2023-12-27T23:08:45.658Z,1.52
2023-12-27T23:11:15.451Z,1.58
2023-12-27T23:13:45.250Z,1.63
2023-12-27T23:16:15.090Z,1.85
2023-12-27T23:18:47.896Z,2.20
2023-12-27T23:21:18.267Z,2.15
2023-12-27T23:23:48.030Z,1.67
2023-12-27T23:26:17.825Z,1.50
2023-12-27T23:28:47.621Z,1.80
2023-12-27T23:31:17.572Z,1.63
2023-12-27T23:33:50.163Z,1.85
2023-12-27T23:36:20.069Z,1.75
2023-12-27T23:38:49.948Z,1.67
2023-12-27T23:41:19.793Z,1.65
2023-12-27T23:43:49.599Z,1.95
2023-12-27T23:46:19.389Z,1.73
2023-12-27T23:48:51.987Z,1.77
2023-12-27T23:51:21.940Z,1.52
2023-12-27T23:53:51.853Z,1.63
2023-12-27T23:56:22.458Z,1.85
2023-12-27T23:58:52.526Z,2.25
